createdAt,value
2019-01-13T00:04:56.429Z,94781.1
2019-01-13T00:09:53.495Z,95078
2019-01-13T00:14:50.383Z,95086.3
2019-01-13T00:19:47.448Z,95077
2019-01-13T00:24:44.410Z,95082.7
2019-01-13T00:29:41.225Z,95090.9
2019-01-13T00:34:37.935Z,95077.5
2019-01-13T00:39:34.783Z,95075.7
2019-01-13T00:44:31.610Z,95070.2
2019-01-13T00:49:28.506Z,95064.2
2019-01-13T00:54:25.249Z,95062.2
2019-01-13T00:59:22.091Z,95058.8
2019-01-13T01:04:18.515Z,95059.3
2019-01-13T01:09:15.284Z,95055.7
2019-01-13T01:14:12.102Z,95053.2
2019-01-13T01:19:09.002Z,94911
2019-01-13T01:24:05.854Z,95037.9
2019-01-13T01:29:02.826Z,94892.4
2019-01-13T01:33:59.366Z,95020.3
2019-01-13T01:38:56.366Z,95013
2019-01-13T01:43:53.002Z,95011.7
2019-01-13T01:48:49.930Z,95007.7
2019-01-13T01:53:46.760Z,95004.5
2019-01-13T01:58:44.198Z,94998.7
2019-01-13T02:03:40.976Z,94993.1
2019-01-13T02:08:37.291Z,94984
2019-01-13T02:13:34.166Z,94979
2019-01-13T02:18:31.040Z,94978.3
2019-01-13T02:23:27.784Z,94971.1
2019-01-13T02:28:24.806Z,94962.9
2019-01-13T02:33:21.558Z,94959.4
2019-01-13T02:38:18.490Z,94959.1
2019-01-13T02:43:15.375Z,94957.2
2019-01-13T02:48:12.525Z,94961.6
2019-01-13T02:53:09.361Z,94963.8
2019-01-13T02:58:06.270Z,94965.6
2019-01-13T03:03:03.074Z,94966.1
2019-01-13T03:07:59.779Z,94965.5
2019-01-13T03:12:56.651Z,94956.4
2019-01-13T03:17:53.230Z,94962
2019-01-13T03:22:50.685Z,94957.2
2019-01-13T03:27:47.404Z,94960.4
2019-01-13T03:32:44.401Z,94960.3
2019-01-13T03:37:41.408Z,94967.6
2019-01-13T03:42:37.760Z,94962.9
2019-01-13T03:47:34.649Z,94962.3
2019-01-13T03:52:31.651Z,94965.9
2019-01-13T03:57:28.692Z,94968.5
2019-01-13T04:02:26.197Z,95170.7
2019-01-13T04:07:23.062Z,94970.5
2019-01-13T04:12:20.148Z,94975.6
2019-01-13T04:17:16.571Z,94972.9
2019-01-13T04:22:13.168Z,94976.1
2019-01-13T04:27:10.160Z,94979.6
2019-01-13T04:32:06.910Z,94989
2019-01-13T04:37:03.493Z,94986
2019-01-13T04:42:00.421Z,94982.2
2019-01-13T04:46:57.379Z,94971.7
2019-01-13T04:51:54.254Z,94971.7
2019-01-13T04:56:51.366Z,94965.2
2019-01-13T05:01:48.123Z,94961.1
2019-01-13T05:06:45.009Z,94955.3
2019-01-13T05:11:41.630Z,94948.5
2019-01-13T05:16:38.575Z,94959.3
2019-01-13T05:21:35.573Z,94965.7
2019-01-13T05:26:32.528Z,94953.2
2019-01-13T05:31:29.488Z,94948.8
2019-01-13T05:36:26.337Z,94939.3
2019-01-13T05:41:23.219Z,94934.8
2019-01-13T05:46:20.203Z,94934
2019-01-13T05:51:16.986Z,94926.2
2019-01-13T05:56:13.952Z,94911.3
2019-01-13T06:01:10.477Z,94916.6
2019-01-13T06:06:07.165Z,94913
2019-01-13T06:11:03.801Z,94915.6
2019-01-13T06:16:00.880Z,94912.4
2019-01-13T06:20:57.688Z,95031.3
2019-01-13T06:25:54.765Z,94919.9
2019-01-13T06:30:52.635Z,94909.7
2019-01-13T06:35:49.429Z,94906.6
2019-01-13T06:40:46.159Z,94907.1
2019-01-13T06:45:43.238Z,94906.3
2019-01-13T06:50:40.154Z,94907.1
2019-01-13T06:55:36.553Z,94910.4
2019-01-13T07:00:33.361Z,94907.9
2019-01-13T07:05:30.335Z,94908.3
2019-01-13T07:10:27.245Z,95091.5
2019-01-13T07:15:23.573Z,94855.1
2019-01-13T07:20:20.010Z,94892.8
2019-01-13T07:25:17.144Z,94890.6
2019-01-13T07:30:13.816Z,94851.8
2019-01-13T07:35:10.481Z,94904.2
2019-01-13T07:40:07.401Z,94905.5
2019-01-13T07:45:03.796Z,94827.5
2019-01-13T07:50:00.347Z,94876.6
2019-01-13T07:54:56.788Z,94920
2019-01-13T07:59:53.555Z,94930
2019-01-13T08:04:51.064Z,94938.8
2019-01-13T08:09:47.763Z,94936.7
2019-01-13T08:14:45.761Z,94939.8
2019-01-13T08:19:42.130Z,94947.5
2019-01-13T08:24:39.092Z,94939.3
2019-01-13T08:29:35.793Z,94931.3
2019-01-13T08:34:32.661Z,94926.6
2019-01-13T08:39:29.321Z,94845.2
2019-01-13T08:44:26.900Z,95095
2019-01-13T08:49:23.252Z,94915.7
2019-01-13T08:54:21.009Z,94912.5
2019-01-13T08:59:17.824Z,94758.3
2019-01-13T09:04:14.901Z,94830.6
2019-01-13T09:09:11.685Z,94864.4
2019-01-13T09:14:12.671Z,95036.3
2019-01-13T09:19:09.609Z,94849.5
2019-01-13T09:24:06.513Z,94847.5
2019-01-13T09:29:03.341Z,94837.8
2019-01-13T09:34:04.139Z,94823.6
2019-01-13T09:39:00.166Z,94816.2
2019-01-13T09:43:56.974Z,94807.6
2019-01-13T09:48:54.347Z,94673.6
2019-01-13T09:53:50.932Z,94789.9
2019-01-13T09:58:47.913Z,94775
2019-01-13T10:03:44.600Z,94764.5
2019-01-13T10:08:41.826Z,94761.3
2019-01-13T10:13:38.667Z,94774.2
2019-01-13T10:18:35.767Z,94773
2019-01-13T10:23:32.735Z,94764.5
2019-01-13T10:28:29.067Z,94628.3
2019-01-13T10:33:26.120Z,94753.1
2019-01-13T10:38:23.142Z,94739.7
2019-01-13T10:43:19.852Z,94613.7
2019-01-13T10:48:16.939Z,94720.8
2019-01-13T10:53:13.702Z,94714.3
2019-01-13T10:58:10.682Z,94713.3
2019-01-13T11:03:07.202Z,94709.3
2019-01-13T11:08:10.986Z,94701.1
2019-01-13T11:13:00.927Z,94695.2
2019-01-13T11:17:58.223Z,94696
2019-01-13T11:22:55.016Z,94693.5
2019-01-13T11:27:51.931Z,94698.4
2019-01-13T11:32:48.652Z,94566
2019-01-13T11:37:45.604Z,94708.7
2019-01-13T11:42:42.332Z,94703.4
2019-01-13T11:47:39.399Z,94701.1
2019-01-13T11:52:35.976Z,94575.6
2019-01-13T11:57:32.815Z,94703.8
2019-01-13T12:02:32.637Z,94640.8
2019-01-13T12:07:26.701Z,94700.5
2019-01-13T12:12:23.492Z,94578.8
2019-01-13T12:17:21.189Z,94571.7
2019-01-13T12:22:17.802Z,94690.4
2019-01-13T12:27:14.816Z,94694.5
2019-01-13T12:32:11.659Z,94678.5
2019-01-13T12:37:08.697Z,94680.3
2019-01-13T12:42:05.477Z,94677.5
2019-01-13T12:47:02.340Z,94675.4
2019-01-13T12:51:58.947Z,94659.3
2019-01-13T12:56:56.009Z,94607
2019-01-13T13:01:52.535Z,94663.2
2019-01-13T13:06:49.738Z,94654.6
2019-01-13T13:11:46.083Z,94515.5
2019-01-13T13:16:42.848Z,94650.6
2019-01-13T13:21:39.748Z,94643.9
2019-01-13T13:26:36.707Z,94623.6
2019-01-13T13:31:33.222Z,94624
2019-01-13T13:36:30.118Z,94612.4
2019-01-13T13:41:27.660Z,94493.3
2019-01-13T13:46:24.590Z,94617.8
2019-01-13T13:51:21.175Z,94604.2
2019-01-13T13:56:18.226Z,94608.5
2019-01-13T14:01:15.085Z,94609.3
2019-01-13T14:06:12.198Z,94614.4
2019-01-13T14:11:09.008Z,94611.9
2019-01-13T14:16:06.025Z,94558.5
2019-01-13T14:21:02.972Z,94608.4
2019-01-13T14:25:59.964Z,94609
2019-01-13T14:30:56.654Z,94599.8
2019-01-13T14:35:53.497Z,94597.8
2019-01-13T14:40:50.456Z,94601.9
2019-01-13T14:45:47.408Z,94558.1
2019-01-13T14:50:44.167Z,94597.6
2019-01-13T14:55:40.828Z,94590.3
2019-01-13T15:00:37.776Z,94591.4
2019-01-13T15:05:34.770Z,94468.8
2019-01-13T15:10:31.931Z,94590.2
2019-01-13T15:15:28.666Z,94592.2
2019-01-13T15:20:25.648Z,94403.2
2019-01-13T15:25:22.633Z,94595.5
2019-01-13T15:30:20.151Z,94449.6
2019-01-13T15:35:16.554Z,94579.9
2019-01-13T15:40:13.206Z,94580.6
2019-01-13T15:45:10.141Z,94585.9
2019-01-13T15:50:06.960Z,94584.4
2019-01-13T15:55:04.112Z,94582.1
2019-01-13T16:00:00.938Z,94583.9
2019-01-13T16:04:57.938Z,94444.3
2019-01-13T16:09:54.587Z,94575.8
2019-01-13T16:14:51.675Z,94448
2019-01-13T16:19:48.500Z,94570.7
2019-01-13T16:24:45.651Z,94579
2019-01-13T16:29:42.476Z,94492
2019-01-13T16:34:39.311Z,94453
2019-01-13T16:39:35.979Z,94573.8
2019-01-13T16:44:33.197Z,94567.9
2019-01-13T16:49:29.844Z,94568
2019-01-13T16:54:26.806Z,94561.6
2019-01-13T16:59:23.769Z,94560.1
2019-01-13T17:04:20.506Z,94551.2
2019-01-13T17:09:17.737Z,94427.7
2019-01-13T17:14:14.571Z,94420.5
2019-01-13T17:19:10.784Z,94559.7
2019-01-13T17:24:07.097Z,94554
2019-01-13T17:29:03.880Z,94555.8
2019-01-13T17:34:00.386Z,94418.4
2019-01-13T17:38:56.939Z,94407.6
2019-01-13T17:43:53.928Z,94545.8
2019-01-13T17:48:50.775Z,94536
2019-01-13T17:53:47.784Z,94538.6
2019-01-13T17:58:44.668Z,94535.4
2019-01-13T18:03:41.567Z,94532.6
2019-01-13T18:08:38.481Z,94338.1
2019-01-13T18:13:35.491Z,94404.7
2019-01-13T18:18:32.691Z,94533.4
2019-01-13T18:23:29.145Z,94529.5
2019-01-13T18:28:26.144Z,94520.9
2019-01-13T18:33:23.114Z,94516.9
2019-01-13T18:38:19.551Z,94524.1
2019-01-13T18:43:16.632Z,94384
2019-01-13T18:48:13.526Z,94516.3
2019-01-13T18:53:10.722Z,94385.3
2019-01-13T18:58:07.513Z,94516
2019-01-13T19:03:04.537Z,94387.4
2019-01-13T19:08:01.411Z,94513.5
2019-01-13T19:12:58.386Z,94510.3
2019-01-13T19:17:55.157Z,94501.2
2019-01-13T19:22:51.958Z,94493.5
2019-01-13T19:27:48.978Z,94501.1
2019-01-13T19:32:45.744Z,94492.2
2019-01-13T19:37:42.552Z,94487.6
2019-01-13T19:42:39.280Z,94481.6
2019-01-13T19:47:35.863Z,94475.2
2019-01-13T19:52:33.201Z,94465.3
2019-01-13T19:57:29.769Z,94462.2
2019-01-13T20:02:26.760Z,94456.8
2019-01-13T20:07:23.715Z,94451.4
2019-01-13T20:12:20.839Z,94321.1
2019-01-13T20:17:17.288Z,94439.7
2019-01-13T20:22:14.271Z,94430.4
2019-01-13T20:27:10.698Z,94432.3
2019-01-13T20:32:07.684Z,94312.3
2019-01-13T20:37:04.768Z,94434.1
2019-01-13T20:42:01.508Z,94418.2
2019-01-13T20:46:58.555Z,94409.8
2019-01-13T20:51:55.150Z,94409.3
2019-01-13T20:56:51.958Z,94409.4
2019-01-13T21:01:48.667Z,94397.3
2019-01-13T21:06:45.638Z,94398.7
2019-01-13T21:11:42.535Z,94393
2019-01-13T21:16:39.399Z,94382.3
2019-01-13T21:21:36.480Z,94056.3
2019-01-13T21:26:34.108Z,94362.9
2019-01-13T21:31:30.032Z,94363.8
2019-01-13T21:36:26.619Z,94355.8
2019-01-13T21:41:23.648Z,94403.6
2019-01-13T21:46:20.252Z,94329.2
2019-01-13T21:51:17.164Z,94187.4
2019-01-13T21:56:14.023Z,94377.5
2019-01-13T22:01:11.019Z,94358.9
2019-01-13T22:06:07.751Z,94312.3
2019-01-13T22:11:04.716Z,94160.6
2019-01-13T22:16:02.286Z,94155.7
2019-01-13T22:20:58.434Z,94280.7
2019-01-13T22:25:55.271Z,94142.9
2019-01-13T22:30:52.394Z,94268.9
2019-01-13T22:35:49.295Z,94130.5
2019-01-13T22:40:47.051Z,94118.9
2019-01-13T22:45:43.575Z,94242.1
2019-01-13T22:50:40.643Z,94232.6
2019-01-13T22:55:37.628Z,94231.2
2019-01-13T23:00:34.537Z,94100.1
2019-01-13T23:05:31.461Z,94230.8
2019-01-13T23:10:28.364Z,94212.3
2019-01-13T23:15:25.167Z,94204.4
2019-01-13T23:20:21.870Z,94211.1
2019-01-13T23:25:18.274Z,94202.6
2019-01-13T23:30:15.051Z,94191.7
2019-01-13T23:35:12.254Z,94319.2
2019-01-13T23:40:08.891Z,94185.8
2019-01-13T23:45:05.231Z,94189.6
2019-01-13T23:50:01.700Z,94186.1
2019-01-13T23:54:58.765Z,94186.3
2019-01-13T23:59:55.677Z,94179.9
